Twin Springs, Nevada Weather observations

Data are for observation ending at time listed.
 Day   Time    Ave.   Ave.  Ave.  Vector   Max.   Stn.    Total    Solar   Ave.  
  of    of     Air    Rel.  Wind   Wind    Wind   Baro.  Precip.   Rad.    Soil  
Year   Day     Temp.  Hum.  Speed  Dir.    Gust   Pres.                    Temp. 
2014   (PST)    F      %     mph   deg.    mph     mb.     in.     W/m2     F   
------------------------------------------------------------------------------
 274    1:00   56.0    50    8.8    28     17.3    842     0.00       0    62.5
 274    2:00   54.6    50   12.4    30     21.3    842     0.00       0    62.0
 274    3:00   52.7    52    7.5    21     14.8    842     0.00       0    61.4
 274    4:00   50.6    56    2.0    53      8.6    843     0.00       0    60.6
 274    5:00   47.9    61    2.8   322      5.8    844     0.00       0    59.8
 274    6:00   47.5    54    4.3    17     13.1    845     0.00       3    58.9
 274    7:00   49.2    46    6.5    34     13.4    846     0.00     127    58.0
 274    8:00   51.7    38   11.0    17     18.0    846     0.00     355    57.4
 274    9:00   53.8    33   11.6    23     18.7    847     0.00     554    57.5
 274   10:00   56.0    29   10.5    26     21.0    847     0.00     712    58.6
 274   11:00   58.2    25    7.6    17     16.9    847     0.00     814    60.0
 274   12:00   60.1    22    9.4   355     21.0    846     0.00     851    61.5
 274   13:00   61.9    19    7.7   343     17.4    846     0.00     819    64.3
 274   14:00   63.3    17    7.3   350     16.5    846     0.00     722    67.3
 274   15:00   64.7    15    5.3   353     13.5    845     0.00     570    69.1
 274   16:00   65.1    15    4.7   345     16.1    845     0.00     375    69.2
 274   17:00   63.7    16    5.3     5     12.4    846     0.00     163    69.1
 274   18:00   59.7    18    6.6   101     13.2    846     0.00      10    68.5
 274   19:00   55.8    22    5.6   149     10.7    847     0.00       0    67.1
 274   20:00   54.0    23    4.0   141      9.1    847     0.00       0    65.6
 274   21:00   48.2    36    1.9   312      4.5    848     0.00       0    64.2
 274   22:00   46.2    40    2.5   343      4.9    848     0.00       0    62.8
 274   23:00   45.7    41    3.4   347      7.3    849     0.00       0    61.4
 275    0:00   43.8    44    3.5   340      6.4    849     0.00       0    60.3

Return to Twin Springs, Nevada graphs page.


Western Regional Climate Center,wrcc@dri.edu